sensor_id;sensor_type;location;lat;lon;timestamp;P1;durP1;ratioP1;P2;durP2;ratioP2
83769;SDS011;73763;48.936;9.300;2024-03-07T00:02:11;67.57;;;41.90;;
83769;SDS011;73763;48.936;9.300;2024-03-07T00:04:36;74.13;;;43.40;;
83769;SDS011;73763;48.936;9.300;2024-03-07T00:07:02;73.72;;;43.72;;
83769;SDS011;73763;48.936;9.300;2024-03-07T00:09:29;79.00;;;44.83;;
83769;SDS011;73763;48.936;9.300;2024-03-07T00:11:57;76.68;;;43.67;;
83769;SDS011;73763;48.936;9.300;2024-03-07T00:14:23;63.50;;;41.00;;
83769;SDS011;73763;48.936;9.300;2024-03-07T00:16:49;63.50;;;41.67;;
83769;SDS011;73763;48.936;9.300;2024-03-07T00:19:14;66.32;;;43.00;;
83769;SDS011;73763;48.936;9.300;2024-03-07T00:21:40;61.50;;;43.10;;
83769;SDS011;73763;48.936;9.300;2024-03-07T00:24:05;62.40;;;42.15;;
83769;SDS011;73763;48.936;9.300;2024-03-07T00:26:31;60.37;;;41.63;;
83769;SDS011;73763;48.936;9.300;2024-03-07T00:28:56;61.10;;;40.67;;
83769;SDS011;73763;48.936;9.300;2024-03-07T00:31:22;59.83;;;41.60;;
83769;SDS011;73763;48.936;9.300;2024-03-07T00:33:47;59.97;;;41.80;;
83769;SDS011;73763;48.936;9.300;2024-03-07T00:36:13;60.23;;;41.67;;
83769;SDS011;73763;48.936;9.300;2024-03-07T00:38:38;61.95;;;42.38;;
83769;SDS011;73763;48.936;9.300;2024-03-07T00:41:03;61.93;;;42.90;;
83769;SDS011;73763;48.936;9.300;2024-03-07T00:43:29;65.43;;;44.03;;
83769;SDS011;73763;48.936;9.300;2024-03-07T00:45:54;66.27;;;44.47;;
83769;SDS011;73763;48.936;9.300;2024-03-07T00:48:20;67.60;;;45.22;;
83769;SDS011;73763;48.936;9.300;2024-03-07T00:50:45;68.30;;;45.43;;
83769;SDS011;73763;48.936;9.300;2024-03-07T00:53:11;69.00;;;45.85;;
83769;SDS011;73763;48.936;9.300;2024-03-07T00:55:36;64.77;;;45.97;;
83769;SDS011;73763;48.936;9.300;2024-03-07T00:58:02;65.80;;;45.45;;
83769;SDS011;73763;48.936;9.300;2024-03-07T01:00:27;67.27;;;46.33;;
83769;SDS011;73763;48.936;9.300;2024-03-07T01:02:53;70.27;;;46.23;;
83769;SDS011;73763;48.936;9.300;2024-03-07T01:05:19;66.18;;;46.47;;
83769;SDS011;73763;48.936;9.300;2024-03-07T01:07:44;68.17;;;46.50;;
83769;SDS011;73763;48.936;9.300;2024-03-07T01:10:10;69.30;;;48.50;;
83769;SDS011;73763;48.936;9.300;2024-03-07T01:12:35;69.18;;;48.60;;
83769;SDS011;73763;48.936;9.300;2024-03-07T01:15:01;70.20;;;47.70;;
83769;SDS011;73763;48.936;9.300;2024-03-07T01:17:27;70.10;;;47.75;;
83769;SDS011;73763;48.936;9.300;2024-03-07T01:19:52;70.23;;;48.47;;
83769;SDS011;73763;48.936;9.300;2024-03-07T01:22:18;73.60;;;49.00;;
83769;SDS011;73763;48.936;9.300;2024-03-07T01:24:43;72.50;;;48.23;;
83769;SDS011;73763;48.936;9.300;2024-03-07T01:27:09;71.43;;;47.80;;
83769;SDS011;73763;48.936;9.300;2024-03-07T01:29:34;68.13;;;47.33;;
83769;SDS011;73763;48.936;9.300;2024-03-07T01:32:00;67.80;;;47.57;;
83769;SDS011;73763;48.936;9.300;2024-03-07T01:34:25;71.88;;;49.28;;
83769;SDS011;73763;48.936;9.300;2024-03-07T01:36:52;66.25;;;47.30;;
83769;SDS011;73763;48.936;9.300;2024-03-07T01:39:17;69.28;;;47.63;;
83769;SDS011;73763;48.936;9.300;2024-03-07T01:41:43;67.87;;;46.97;;
83769;SDS011;73763;48.936;9.300;2024-03-07T01:44:08;72.70;;;50.00;;
83769;SDS011;73763;48.936;9.300;2024-03-07T01:46:34;68.97;;;48.60;;
83769;SDS011;73763;48.936;9.300;2024-03-07T01:48:59;71.70;;;48.90;;
83769;SDS011;73763;48.936;9.300;2024-03-07T01:51:25;69.47;;;47.08;;
83769;SDS011;73763;48.936;9.300;2024-03-07T01:53:51;72.57;;;49.85;;
83769;SDS011;73763;48.936;9.300;2024-03-07T01:56:18;73.47;;;50.65;;
83769;SDS011;73763;48.936;9.300;2024-03-07T01:58:46;71.30;;;48.85;;
83769;SDS011;73763;48.936;9.300;2024-03-07T02:01:12;73.93;;;51.10;;
83769;SDS011;73763;48.936;9.300;2024-03-07T02:03:38;71.73;;;51.40;;
83769;SDS011;73763;48.936;9.300;2024-03-07T02:06:03;71.20;;;48.47;;
83769;SDS011;73763;48.936;9.300;2024-03-07T02:08:29;72.27;;;49.90;;
83769;SDS011;73763;48.936;9.300;2024-03-07T02:10:54;75.07;;;49.90;;
83769;SDS011;73763;48.936;9.300;2024-03-07T02:13:20;73.80;;;49.67;;
83769;SDS011;73763;48.936;9.300;2024-03-07T02:15:45;73.23;;;50.17;;
83769;SDS011;73763;48.936;9.300;2024-03-07T02:18:11;76.70;;;50.93;;
83769;SDS011;73763;48.936;9.300;2024-03-07T02:20:37;82.30;;;52.33;;
83769;SDS011;73763;48.936;9.300;2024-03-07T02:23:02;82.30;;;54.53;;
83769;SDS011;73763;48.936;9.300;2024-03-07T02:25:28;87.07;;;53.57;;
83769;SDS011;73763;48.936;9.300;2024-03-07T02:27:53;84.85;;;53.47;;
83769;SDS011;73763;48.936;9.300;2024-03-07T02:30:19;87.50;;;55.33;;
83769;SDS011;73763;48.936;9.300;2024-03-07T02:32:45;90.47;;;55.95;;
83769;SDS011;73763;48.936;9.300;2024-03-07T02:35:11;92.63;;;55.50;;
83769;SDS011;73763;48.936;9.300;2024-03-07T02:37:37;91.97;;;55.80;;
83769;SDS011;73763;48.936;9.300;2024-03-07T02:40:02;101.90;;;58.83;;
83769;SDS011;73763;48.936;9.300;2024-03-07T02:42:28;99.20;;;59.80;;
83769;SDS011;73763;48.936;9.300;2024-03-07T02:44:53;93.10;;;57.77;;
83769;SDS011;73763;48.936;9.300;2024-03-07T02:47:19;94.03;;;57.23;;
83769;SDS011;73763;48.936;9.300;2024-03-07T02:49:44;94.07;;;56.90;;
83769;SDS011;73763;48.936;9.300;2024-03-07T02:52:10;88.00;;;54.83;;
83769;SDS011;73763;48.936;9.300;2024-03-07T02:54:35;92.87;;;55.87;;
83769;SDS011;73763;48.936;9.300;2024-03-07T02:57:01;97.13;;;57.85;;
83769;SDS011;73763;48.936;9.300;2024-03-07T02:59:27;101.97;;;58.53;;
83769;SDS011;73763;48.936;9.300;2024-03-07T03:01:52;108.93;;;60.73;;
83769;SDS011;73763;48.936;9.300;2024-03-07T03:04:18;112.25;;;62.03;;
83769;SDS011;73763;48.936;9.300;2024-03-07T03:06:43;103.13;;;59.77;;
83769;SDS011;73763;48.936;9.300;2024-03-07T03:09:09;98.53;;;58.10;;
83769;SDS011;73763;48.936;9.300;2024-03-07T03:11:34;100.67;;;59.37;;
83769;SDS011;73763;48.936;9.300;2024-03-07T03:14:00;101.15;;;57.53;;
83769;SDS011;73763;48.936;9.300;2024-03-07T03:16:25;102.80;;;58.83;;
83769;SDS011;73763;48.936;9.300;2024-03-07T03:18:51;107.40;;;59.27;;
83769;SDS011;73763;48.936;9.300;2024-03-07T03:21:16;103.60;;;57.63;;
83769;SDS011;73763;48.936;9.300;2024-03-07T03:23:42;98.80;;;57.90;;
83769;SDS011;73763;48.936;9.300;2024-03-07T03:26:07;103.07;;;57.80;;
83769;SDS011;73763;48.936;9.300;2024-03-07T03:28:33;104.07;;;57.17;;
83769;SDS011;73763;48.936;9.300;2024-03-07T03:30:58;107.65;;;60.08;;
83769;SDS011;73763;48.936;9.300;2024-03-07T03:33:23;99.97;;;57.67;;
83769;SDS011;73763;48.936;9.300;2024-03-07T03:35:49;110.18;;;60.55;;
83769;SDS011;73763;48.936;9.300;2024-03-07T03:38:14;102.90;;;58.03;;
83769;SDS011;73763;48.936;9.300;2024-03-07T03:40:40;101.65;;;56.25;;
83769;SDS011;73763;48.936;9.300;2024-03-07T03:43:05;105.67;;;59.53;;
83769;SDS011;73763;48.936;9.300;2024-03-07T03:45:31;96.87;;;56.47;;
83769;SDS011;73763;48.936;9.300;2024-03-07T03:47:56;98.70;;;56.20;;
83769;SDS011;73763;48.936;9.300;2024-03-07T03:50:22;101.80;;;56.27;;
83769;SDS011;73763;48.936;9.300;2024-03-07T03:52:48;99.57;;;57.40;;
83769;SDS011;73763;48.936;9.300;2024-03-07T03:55:14;92.13;;;54.40;;
83769;SDS011;73763;48.936;9.300;2024-03-07T03:57:40;87.43;;;52.07;;
83769;SDS011;73763;48.936;9.300;2024-03-07T04:00:06;84.45;;;52.97;;
83769;SDS011;73763;48.936;9.300;2024-03-07T04:02:33;82.47;;;51.15;;
83769;SDS011;73763;48.936;9.300;2024-03-07T04:04:58;83.63;;;50.88;;
83769;SDS011;73763;48.936;9.300;2024-03-07T04:07:24;83.80;;;51.00;;
83769;SDS011;73763;48.936;9.300;2024-03-07T04:09:49;82.38;;;50.80;;
83769;SDS011;73763;48.936;9.300;2024-03-07T04:12:15;79.17;;;50.23;;
83769;SDS011;73763;48.936;9.300;2024-03-07T04:14:41;81.10;;;50.53;;
83769;SDS011;73763;48.936;9.300;2024-03-07T04:17:07;74.65;;;49.15;;
83769;SDS011;73763;48.936;9.300;2024-03-07T04:19:36;82.00;;;50.53;;
83769;SDS011;73763;48.936;9.300;2024-03-07T04:22:01;75.50;;;49.35;;
83769;SDS011;73763;48.936;9.300;2024-03-07T04:24:27;77.82;;;48.55;;
83769;SDS011;73763;48.936;9.300;2024-03-07T04:26:52;70.90;;;47.27;;
83769;SDS011;73763;48.936;9.300;2024-03-07T04:29:18;78.00;;;48.87;;
83769;SDS011;73763;48.936;9.300;2024-03-07T04:31:44;72.88;;;47.90;;
83769;SDS011;73763;48.936;9.300;2024-03-07T04:34:09;78.53;;;49.20;;
83769;SDS011;73763;48.936;9.300;2024-03-07T04:36:34;74.05;;;48.38;;
83769;SDS011;73763;48.936;9.300;2024-03-07T04:39:00;75.57;;;48.23;;
83769;SDS011;73763;48.936;9.300;2024-03-07T04:41:26;75.25;;;48.95;;
83769;SDS011;73763;48.936;9.300;2024-03-07T04:43:55;85.15;;;50.63;;
83769;SDS011;73763;48.936;9.300;2024-03-07T04:46:20;88.30;;;53.35;;
83769;SDS011;73763;48.936;9.300;2024-03-07T04:48:46;92.67;;;53.53;;
83769;SDS011;73763;48.936;9.300;2024-03-07T04:51:11;80.40;;;49.87;;
83769;SDS011;73763;48.936;9.300;2024-03-07T04:53:37;81.53;;;49.53;;
83769;SDS011;73763;48.936;9.300;2024-03-07T04:56:02;76.80;;;48.07;;
83769;SDS011;73763;48.936;9.300;2024-03-07T04:58:28;78.57;;;47.47;;
83769;SDS011;73763;48.936;9.300;2024-03-07T05:00:53;74.57;;;47.27;;
83769;SDS011;73763;48.936;9.300;2024-03-07T05:03:19;70.43;;;44.20;;
83769;SDS011;73763;48.936;9.300;2024-03-07T05:05:44;68.70;;;44.80;;
83769;SDS011;73763;48.936;9.300;2024-03-07T05:08:10;66.60;;;44.13;;
83769;SDS011;73763;48.936;9.300;2024-03-07T05:10:35;67.30;;;42.65;;
83769;SDS011;73763;48.936;9.300;2024-03-07T05:13:01;63.63;;;42.83;;
83769;SDS011;73763;48.936;9.300;2024-03-07T05:15:27;62.65;;;41.58;;
83769;SDS011;73763;48.936;9.300;2024-03-07T05:17:52;62.63;;;42.28;;
83769;SDS011;73763;48.936;9.300;2024-03-07T05:20:18;66.07;;;43.40;;
83769;SDS011;73763;48.936;9.300;2024-03-07T05:22:43;71.70;;;45.00;;
83769;SDS011;73763;48.936;9.300;2024-03-07T05:25:09;71.63;;;45.15;;
83769;SDS011;73763;48.936;9.300;2024-03-07T05:27:35;67.10;;;43.73;;
83769;SDS011;73763;48.936;9.300;2024-03-07T05:30:00;69.80;;;44.20;;
83769;SDS011;73763;48.936;9.300;2024-03-07T05:32:26;63.63;;;43.15;;
83769;SDS011;73763;48.936;9.300;2024-03-07T05:34:52;69.60;;;43.30;;
83769;SDS011;73763;48.936;9.300;2024-03-07T05:37:18;66.15;;;43.47;;
83769;SDS011;73763;48.936;9.300;2024-03-07T05:39:43;65.97;;;42.80;;
83769;SDS011;73763;48.936;9.300;2024-03-07T05:42:09;65.43;;;43.57;;
83769;SDS011;73763;48.936;9.300;2024-03-07T05:44:34;65.40;;;42.10;;
83769;SDS011;73763;48.936;9.300;2024-03-07T05:47:00;68.37;;;43.23;;
83769;SDS011;73763;48.936;9.300;2024-03-07T05:49:25;64.90;;;42.40;;
83769;SDS011;73763;48.936;9.300;2024-03-07T05:51:51;55.38;;;39.28;;
83769;SDS011;73763;48.936;9.300;2024-03-07T05:54:16;61.00;;;41.07;;
83769;SDS011;73763;48.936;9.300;2024-03-07T05:56:42;55.30;;;39.83;;
83769;SDS011;73763;48.936;9.300;2024-03-07T05:59:07;55.50;;;37.97;;
83769;SDS011;73763;48.936;9.300;2024-03-07T06:01:33;54.95;;;37.28;;
83769;SDS011;73763;48.936;9.300;2024-03-07T06:04:02;54.57;;;37.77;;
83769;SDS011;73763;48.936;9.300;2024-03-07T06:06:29;54.63;;;38.78;;
83769;SDS011;73763;48.936;9.300;2024-03-07T06:08:54;58.22;;;39.17;;
83769;SDS011;73763;48.936;9.300;2024-03-07T06:11:20;56.30;;;38.73;;
83769;SDS011;73763;48.936;9.300;2024-03-07T06:13:46;55.93;;;38.70;;
83769;SDS011;73763;48.936;9.300;2024-03-07T06:16:12;54.15;;;36.65;;
83769;SDS011;73763;48.936;9.300;2024-03-07T06:18:37;56.33;;;37.67;;
83769;SDS011;73763;48.936;9.300;2024-03-07T06:21:03;53.67;;;37.00;;
83769;SDS011;73763;48.936;9.300;2024-03-07T06:23:28;54.70;;;37.67;;
83769;SDS011;73763;48.936;9.300;2024-03-07T06:25:54;54.97;;;37.43;;
83769;SDS011;73763;48.936;9.300;2024-03-07T06:28:19;52.93;;;35.83;;
83769;SDS011;73763;48.936;9.300;2024-03-07T06:30:46;54.37;;;36.67;;
83769;SDS011;73763;48.936;9.300;2024-03-07T06:33:12;50.97;;;37.13;;
83769;SDS011;73763;48.936;9.300;2024-03-07T06:35:39;49.13;;;36.13;;
83769;SDS011;73763;48.936;9.300;2024-03-07T06:38:08;52.60;;;36.53;;
83769;SDS011;73763;48.936;9.300;2024-03-07T06:40:38;56.15;;;38.10;;
83769;SDS011;73763;48.936;9.300;2024-03-07T06:43:04;65.97;;;42.00;;
83769;SDS011;73763;48.936;9.300;2024-03-07T06:45:30;55.33;;;38.33;;
83769;SDS011;73763;48.936;9.300;2024-03-07T06:47:55;60.22;;;41.17;;
83769;SDS011;73763;48.936;9.300;2024-03-07T06:50:21;55.60;;;36.67;;
83769;SDS011;73763;48.936;9.300;2024-03-07T06:52:46;57.80;;;37.50;;
83769;SDS011;73763;48.936;9.300;2024-03-07T06:55:15;48.13;;;35.65;;
83769;SDS011;73763;48.936;9.300;2024-03-07T06:57:41;52.45;;;35.88;;
83769;SDS011;73763;48.936;9.300;2024-03-07T07:00:06;48.83;;;34.80;;
83769;SDS011;73763;48.936;9.300;2024-03-07T07:02:32;48.80;;;36.10;;
83769;SDS011;73763;48.936;9.300;2024-03-07T07:04:58;49.13;;;34.37;;
83769;SDS011;73763;48.936;9.300;2024-03-07T07:07:23;46.40;;;34.10;;
83769;SDS011;73763;48.936;9.300;2024-03-07T07:09:49;42.47;;;33.43;;
83769;SDS011;73763;48.936;9.300;2024-03-07T07:12:14;46.65;;;34.25;;
83769;SDS011;73763;48.936;9.300;2024-03-07T07:14:40;43.43;;;32.17;;
83769;SDS011;73763;48.936;9.300;2024-03-07T07:17:05;41.67;;;30.00;;
83769;SDS011;73763;48.936;9.300;2024-03-07T07:19:31;38.57;;;28.90;;
83769;SDS011;73763;48.936;9.300;2024-03-07T07:21:56;37.28;;;28.48;;
83769;SDS011;73763;48.936;9.300;2024-03-07T07:24:25;33.10;;;27.00;;
83769;SDS011;73763;48.936;9.300;2024-03-07T07:26:50;33.70;;;26.23;;
83769;SDS011;73763;48.936;9.300;2024-03-07T07:29:16;33.00;;;26.97;;
83769;SDS011;73763;48.936;9.300;2024-03-07T07:31:41;31.67;;;25.93;;
83769;SDS011;73763;48.936;9.300;2024-03-07T07:34:07;30.40;;;24.40;;
83769;SDS011;73763;48.936;9.300;2024-03-07T07:36:32;32.08;;;24.95;;
83769;SDS011;73763;48.936;9.300;2024-03-07T07:38:58;28.23;;;23.53;;
83769;SDS011;73763;48.936;9.300;2024-03-07T07:41:23;31.40;;;25.30;;
83769;SDS011;73763;48.936;9.300;2024-03-07T07:43:49;29.90;;;24.57;;
83769;SDS011;73763;48.936;9.300;2024-03-07T07:46:14;28.90;;;23.70;;
83769;SDS011;73763;48.936;9.300;2024-03-07T07:48:40;47.17;;;32.37;;
83769;SDS011;73763;48.936;9.300;2024-03-07T07:51:05;31.93;;;26.33;;
83769;SDS011;73763;48.936;9.300;2024-03-07T07:53:31;27.20;;;22.73;;
83769;SDS011;73763;48.936;9.300;2024-03-07T07:55:56;24.70;;;21.30;;
83769;SDS011;73763;48.936;9.300;2024-03-07T07:58:22;26.08;;;22.50;;
83769;SDS011;73763;48.936;9.300;2024-03-07T08:00:47;25.10;;;20.73;;
83769;SDS011;73763;48.936;9.300;2024-03-07T08:03:13;23.43;;;20.93;;
83769;SDS011;73763;48.936;9.300;2024-03-07T08:05:38;26.47;;;21.90;;
83769;SDS011;73763;48.936;9.300;2024-03-07T08:08:05;26.27;;;20.80;;
83769;SDS011;73763;48.936;9.300;2024-03-07T08:10:34;26.80;;;22.23;;
83769;SDS011;73763;48.936;9.300;2024-03-07T08:13:01;25.70;;;21.17;;
83769;SDS011;73763;48.936;9.300;2024-03-07T08:15:28;27.48;;;23.17;;
83769;SDS011;73763;48.936;9.300;2024-03-07T08:17:55;25.98;;;21.85;;
83769;SDS011;73763;48.936;9.300;2024-03-07T08:20:21;26.50;;;23.20;;
83769;SDS011;73763;48.936;9.300;2024-03-07T08:22:49;26.25;;;22.35;;
83769;SDS011;73763;48.936;9.300;2024-03-07T08:25:15;29.10;;;23.45;;
83769;SDS011;73763;48.936;9.300;2024-03-07T08:27:42;28.17;;;23.40;;
83769;SDS011;73763;48.936;9.300;2024-03-07T08:30:09;31.05;;;23.80;;
83769;SDS011;73763;48.936;9.300;2024-03-07T08:32:35;33.53;;;25.73;;
83769;SDS011;73763;48.936;9.300;2024-03-07T08:35:01;29.67;;;24.20;;
83769;SDS011;73763;48.936;9.300;2024-03-07T08:37:26;31.77;;;25.87;;
83769;SDS011;73763;48.936;9.300;2024-03-07T08:39:52;30.73;;;24.50;;
83769;SDS011;73763;48.936;9.300;2024-03-07T08:42:17;32.63;;;25.50;;
83769;SDS011;73763;48.936;9.300;2024-03-07T08:44:43;33.13;;;25.40;;
83769;SDS011;73763;48.936;9.300;2024-03-07T08:47:08;31.70;;;24.95;;
83769;SDS011;73763;48.936;9.300;2024-03-07T08:49:34;31.40;;;25.20;;
83769;SDS011;73763;48.936;9.300;2024-03-07T08:51:59;34.20;;;25.95;;
83769;SDS011;73763;48.936;9.300;2024-03-07T08:54:25;32.17;;;25.30;;
83769;SDS011;73763;48.936;9.300;2024-03-07T08:56:50;29.58;;;24.15;;
83769;SDS011;73763;48.936;9.300;2024-03-07T08:59:16;30.50;;;24.47;;
83769;SDS011;73763;48.936;9.300;2024-03-07T09:01:41;30.10;;;23.95;;
83769;SDS011;73763;48.936;9.300;2024-03-07T09:04:07;31.13;;;24.13;;
83769;SDS011;73763;48.936;9.300;2024-03-07T09:06:32;29.98;;;24.08;;
83769;SDS011;73763;48.936;9.300;2024-03-07T09:08:57;30.93;;;23.87;;
83769;SDS011;73763;48.936;9.300;2024-03-07T09:11:23;29.63;;;23.77;;
83769;SDS011;73763;48.936;9.300;2024-03-07T09:13:48;32.17;;;25.27;;
83769;SDS011;73763;48.936;9.300;2024-03-07T09:16:14;30.93;;;24.27;;
83769;SDS011;73763;48.936;9.300;2024-03-07T09:18:39;32.10;;;24.80;;
83769;SDS011;73763;48.936;9.300;2024-03-07T09:21:05;31.00;;;25.27;;
83769;SDS011;73763;48.936;9.300;2024-03-07T09:23:30;33.08;;;24.25;;
83769;SDS011;73763;48.936;9.300;2024-03-07T09:25:56;29.83;;;24.60;;
83769;SDS011;73763;48.936;9.300;2024-03-07T09:28:21;30.83;;;24.60;;
83769;SDS011;73763;48.936;9.300;2024-03-07T09:30:47;31.23;;;24.43;;
83769;SDS011;73763;48.936;9.300;2024-03-07T09:33:12;30.02;;;24.42;;
83769;SDS011;73763;48.936;9.300;2024-03-07T09:35:38;31.67;;;24.47;;
83769;SDS011;73763;48.936;9.300;2024-03-07T09:38:03;26.60;;;22.60;;
83769;SDS011;73763;48.936;9.300;2024-03-07T09:40:29;29.67;;;24.25;;
83769;SDS011;73763;48.936;9.300;2024-03-07T09:42:54;27.60;;;22.60;;
83769;SDS011;73763;48.936;9.300;2024-03-07T09:45:21;27.55;;;23.35;;
83769;SDS011;73763;48.936;9.300;2024-03-07T09:47:50;29.13;;;23.65;;
83769;SDS011;73763;48.936;9.300;2024-03-07T09:50:16;29.20;;;23.67;;
83769;SDS011;73763;48.936;9.300;2024-03-07T09:52:42;26.98;;;23.17;;
83769;SDS011;73763;48.936;9.300;2024-03-07T09:55:10;28.80;;;24.10;;
83769;SDS011;73763;48.936;9.300;2024-03-07T09:57:36;27.10;;;24.08;;
83769;SDS011;73763;48.936;9.300;2024-03-07T10:00:02;27.20;;;23.45;;
83769;SDS011;73763;48.936;9.300;2024-03-07T10:02:29;27.80;;;23.15;;
83769;SDS011;73763;48.936;9.300;2024-03-07T10:04:59;27.33;;;22.67;;
83769;SDS011;73763;48.936;9.300;2024-03-07T10:07:25;27.90;;;22.80;;
83769;SDS011;73763;48.936;9.300;2024-03-07T10:09:51;26.35;;;23.08;;
83769;SDS011;73763;48.936;9.300;2024-03-07T10:12:19;27.90;;;22.87;;
83769;SDS011;73763;48.936;9.300;2024-03-07T10:14:48;26.55;;;22.60;;
83769;SDS011;73763;48.936;9.300;2024-03-07T10:17:14;28.77;;;24.27;;
83769;SDS011;73763;48.936;9.300;2024-03-07T10:19:40;29.75;;;23.98;;
83769;SDS011;73763;48.936;9.300;2024-03-07T10:22:06;26.48;;;23.58;;
83769;SDS011;73763;48.936;9.300;2024-03-07T10:24:31;26.93;;;23.97;;
83769;SDS011;73763;48.936;9.300;2024-03-07T10:26:57;30.57;;;24.97;;
83769;SDS011;73763;48.936;9.300;2024-03-07T10:29:22;28.92;;;23.85;;
83769;SDS011;73763;48.936;9.300;2024-03-07T10:31:48;28.10;;;24.15;;
83769;SDS011;73763;48.936;9.300;2024-03-07T10:34:14;31.67;;;25.13;;
83769;SDS011;73763;48.936;9.300;2024-03-07T10:36:40;26.83;;;23.95;;
83769;SDS011;73763;48.936;9.300;2024-03-07T10:39:07;28.48;;;24.23;;
83769;SDS011;73763;48.936;9.300;2024-03-07T10:41:34;28.97;;;24.37;;
83769;SDS011;73763;48.936;9.300;2024-03-07T10:44:00;28.60;;;24.55;;
83769;SDS011;73763;48.936;9.300;2024-03-07T10:46:28;27.33;;;24.40;;
83769;SDS011;73763;48.936;9.300;2024-03-07T10:48:54;27.65;;;24.65;;
83769;SDS011;73763;48.936;9.300;2024-03-07T10:51:32;28.92;;;25.83;;
83769;SDS011;73763;48.936;9.300;2024-03-07T10:54:10;30.50;;;25.53;;
83769;SDS011;73763;48.936;9.300;2024-03-07T10:59:30;30.02;;;25.13;;
83769;SDS011;73763;48.936;9.300;2024-03-07T11:05:01;28.73;;;24.83;;
83769;SDS011;73763;48.936;9.300;2024-03-07T11:07:29;31.70;;;24.98;;
83769;SDS011;73763;48.936;9.300;2024-03-07T11:09:54;31.40;;;25.63;;
83769;SDS011;73763;48.936;9.300;2024-03-07T11:12:23;28.67;;;24.67;;
83769;SDS011;73763;48.936;9.300;2024-03-07T11:14:50;30.00;;;24.60;;
83769;SDS011;73763;48.936;9.300;2024-03-07T11:17:17;31.15;;;26.10;;
83769;SDS011;73763;48.936;9.300;2024-03-07T11:19:45;32.53;;;25.65;;
83769;SDS011;73763;48.936;9.300;2024-03-07T11:22:10;29.40;;;25.13;;
83769;SDS011;73763;48.936;9.300;2024-03-07T11:24:36;33.08;;;25.58;;
83769;SDS011;73763;48.936;9.300;2024-03-07T11:27:02;31.77;;;26.07;;
83769;SDS011;73763;48.936;9.300;2024-03-07T11:32:12;29.70;;;25.58;;
83769;SDS011;73763;48.936;9.300;2024-03-07T11:34:39;29.92;;;25.52;;
83769;SDS011;73763;48.936;9.300;2024-03-07T11:37:06;28.27;;;24.20;;
83769;SDS011;73763;48.936;9.300;2024-03-07T11:39:41;33.90;;;25.97;;
83769;SDS011;73763;48.936;9.300;2024-03-07T11:42:08;31.95;;;26.10;;
83769;SDS011;73763;48.936;9.300;2024-03-07T11:44:52;31.93;;;26.60;;
83769;SDS011;73763;48.936;9.300;2024-03-07T11:47:18;33.77;;;26.50;;
83769;SDS011;73763;48.936;9.300;2024-03-07T11:49:44;31.80;;;26.58;;
83769;SDS011;73763;48.936;9.300;2024-03-07T11:52:10;36.08;;;25.85;;
83769;SDS011;73763;48.936;9.300;2024-03-07T11:54:35;31.07;;;25.10;;
83769;SDS011;73763;48.936;9.300;2024-03-07T11:57:01;29.67;;;24.77;;
83769;SDS011;73763;48.936;9.300;2024-03-07T11:59:26;31.37;;;24.73;;
83769;SDS011;73763;48.936;9.300;2024-03-07T12:01:53;29.33;;;24.17;;
83769;SDS011;73763;48.936;9.300;2024-03-07T12:04:18;29.35;;;25.27;;
83769;SDS011;73763;48.936;9.300;2024-03-07T12:07:05;28.38;;;23.33;;
83769;SDS011;73763;48.936;9.300;2024-03-07T12:09:30;28.30;;;24.03;;
83769;SDS011;73763;48.936;9.300;2024-03-07T12:11:56;26.63;;;23.60;;
83769;SDS011;73763;48.936;9.300;2024-03-07T12:14:21;26.50;;;23.00;;
83769;SDS011;73763;48.936;9.300;2024-03-07T12:16:47;26.73;;;23.35;;
83769;SDS011;73763;48.936;9.300;2024-03-07T12:19:13;27.83;;;23.57;;
83769;SDS011;73763;48.936;9.300;2024-03-07T12:21:38;27.35;;;23.13;;
83769;SDS011;73763;48.936;9.300;2024-03-07T12:24:11;31.25;;;24.13;;
83769;SDS011;73763;48.936;9.300;2024-03-07T12:26:37;31.98;;;23.88;;
83769;SDS011;73763;48.936;9.300;2024-03-07T12:29:10;29.30;;;23.63;;
83769;SDS011;73763;48.936;9.300;2024-03-07T12:31:36;31.73;;;23.73;;
83769;SDS011;73763;48.936;9.300;2024-03-07T12:34:02;32.42;;;24.77;;
83769;SDS011;73763;48.936;9.300;2024-03-07T12:36:28;30.55;;;24.75;;
83769;SDS011;73763;48.936;9.300;2024-03-07T12:38:54;29.42;;;22.90;;
83769;SDS011;73763;48.936;9.300;2024-03-07T12:41:19;30.07;;;24.27;;
83769;SDS011;73763;48.936;9.300;2024-03-07T12:43:47;30.48;;;23.98;;
83769;SDS011;73763;48.936;9.300;2024-03-07T12:46:13;32.90;;;25.73;;
83769;SDS011;73763;48.936;9.300;2024-03-07T12:48:39;31.40;;;24.67;;
83769;SDS011;73763;48.936;9.300;2024-03-07T12:51:05;32.28;;;25.95;;
83769;SDS011;73763;48.936;9.300;2024-03-07T12:53:31;33.57;;;26.43;;
83769;SDS011;73763;48.936;9.300;2024-03-07T12:55:56;35.53;;;26.77;;
83769;SDS011;73763;48.936;9.300;2024-03-07T12:58:22;33.60;;;26.75;;
83769;SDS011;73763;48.936;9.300;2024-03-07T13:00:48;35.63;;;26.67;;
83769;SDS011;73763;48.936;9.300;2024-03-07T13:03:14;35.95;;;28.27;;
83769;SDS011;73763;48.936;9.300;2024-03-07T13:05:40;36.05;;;27.85;;
83769;SDS011;73763;48.936;9.300;2024-03-07T13:08:09;35.03;;;27.85;;
83769;SDS011;73763;48.936;9.300;2024-03-07T13:10:35;35.88;;;29.00;;
83769;SDS011;73763;48.936;9.300;2024-03-07T13:13:00;35.63;;;28.10;;
83769;SDS011;73763;48.936;9.300;2024-03-07T13:15:26;38.85;;;29.08;;
83769;SDS011;73763;48.936;9.300;2024-03-07T13:17:51;38.53;;;28.23;;
83769;SDS011;73763;48.936;9.300;2024-03-07T13:20:17;40.70;;;30.08;;
83769;SDS011;73763;48.936;9.300;2024-03-07T13:22:43;37.77;;;29.30;;
83769;SDS011;73763;48.936;9.300;2024-03-07T13:25:10;39.42;;;28.52;;
83769;SDS011;73763;48.936;9.300;2024-03-07T13:27:38;37.37;;;29.33;;
83769;SDS011;73763;48.936;9.300;2024-03-07T13:30:04;39.35;;;29.55;;
83769;SDS011;73763;48.936;9.300;2024-03-07T13:32:30;39.22;;;28.98;;
83769;SDS011;73763;48.936;9.300;2024-03-07T13:34:55;35.53;;;28.20;;
83769;SDS011;73763;48.936;9.300;2024-03-07T13:37:20;37.25;;;30.30;;
83769;SDS011;73763;48.936;9.300;2024-03-07T13:39:46;38.10;;;28.57;;
83769;SDS011;73763;48.936;9.300;2024-03-07T13:42:11;39.53;;;30.15;;
83769;SDS011;73763;48.936;9.300;2024-03-07T13:44:37;39.50;;;29.93;;
83769;SDS011;73763;48.936;9.300;2024-03-07T13:47:02;39.57;;;30.10;;
83769;SDS011;73763;48.936;9.300;2024-03-07T13:49:28;40.47;;;29.83;;
83769;SDS011;73763;48.936;9.300;2024-03-07T13:51:54;37.80;;;28.98;;
83769;SDS011;73763;48.936;9.300;2024-03-07T13:54:19;39.07;;;28.33;;
83769;SDS011;73763;48.936;9.300;2024-03-07T13:56:48;38.93;;;29.57;;
83769;SDS011;73763;48.936;9.300;2024-03-07T14:22:34;37.53;;;28.90;;
83769;SDS011;73763;48.936;9.300;2024-03-07T14:30:55;35.72;;;27.65;;
83769;SDS011;73763;48.936;9.300;2024-03-07T14:33:24;35.67;;;26.97;;
83769;SDS011;73763;48.936;9.300;2024-03-07T14:35:58;33.75;;;25.30;;
83769;SDS011;73763;48.936;9.300;2024-03-07T14:38:51;35.40;;;26.75;;
83769;SDS011;73763;48.936;9.300;2024-03-07T14:41:20;35.42;;;25.95;;
83769;SDS011;73763;48.936;9.300;2024-03-07T14:44:06;35.55;;;26.38;;
83769;SDS011;73763;48.936;9.300;2024-03-07T14:46:31;35.90;;;25.50;;
83769;SDS011;73763;48.936;9.300;2024-03-07T14:48:57;37.23;;;25.50;;
83769;SDS011;73763;48.936;9.300;2024-03-07T14:51:22;32.85;;;25.05;;
83769;SDS011;73763;48.936;9.300;2024-03-07T14:53:47;38.63;;;26.13;;